Time,TemperatureF,DewpointF,PressureIn,WindDirection,WindDirectionDegrees,WindSpeedMPH,WindSpeedGustMPH,Humidity,HourlyPrecipIn,Conditions,Clouds,dailyrainin,SoftwareType,DateUTC
2013-01-08 00:07:00,23.2,22.0,30.21,North,360,0.0,0.0,93,0.00,,,0.00,weatherlink.com 1.10,2013-01-08 06:07:00,
2013-01-08 00:22:00,23.5,22.0,30.20,North,360,0.0,0.0,93,0.00,,,0.00,weatherlink.com 1.10,2013-01-08 06:22:00,
2013-01-08 00:37:00,22.7,21.0,30.20,North,360,0.0,0.0,93,0.00,,,0.00,weatherlink.com 1.10,2013-01-08 06:37:00,
2013-01-08 00:52:00,23.5,22.0,30.20,North,360,0.0,0.0,94,0.00,,,0.00,weatherlink.com 1.10,2013-01-08 06:52:00,
2013-01-08 01:07:00,23.6,22.0,30.20,North,360,0.0,0.0,93,0.00,,,0.00,weatherlink.com 1.10,2013-01-08 07:07:00,
2013-01-08 01:22:00,23.5,22.0,30.20,North,360,0.0,0.0,93,0.00,,,0.00,weatherlink.com 1.10,2013-01-08 07:22:00,
2013-01-08 01:37:00,23.7,22.0,30.21,North,360,0.0,0.0,94,0.00,,,0.00,weatherlink.com 1.10,2013-01-08 07:37:00,
2013-01-08 01:52:00,24.1,23.0,30.21,North,360,0.0,0.0,94,0.00,,,0.00,weatherlink.com 1.10,2013-01-08 07:52:00,
2013-01-08 02:07:00,24.3,23.0,30.21,North,360,0.0,0.0,94,0.00,,,0.00,weatherlink.com 1.10,2013-01-08 08:07:00,
2013-01-08 02:22:00,24.8,23.0,30.20,North,360,0.0,0.0,94,0.00,,,0.00,weatherlink.com 1.10,2013-01-08 08:22:00,
2013-01-08 02:37:00,25.1,24.0,30.20,North,360,0.0,0.0,94,0.00,,,0.00,weatherlink.com 1.10,2013-01-08 08:37:00,
2013-01-08 02:52:00,25.3,24.0,30.20,North,360,0.0,0.0,94,0.00,,,0.00,weatherlink.com 1.10,2013-01-08 08:52:00,
2013-01-08 03:07:00,25.2,24.0,30.20,North,360,0.0,0.0,94,0.00,,,0.00,weatherlink.com 1.10,2013-01-08 09:07:00,
2013-01-08 03:22:00,25.3,24.0,30.19,North,360,0.0,0.0,94,0.00,,,0.00,weatherlink.com 1.10,2013-01-08 09:22:00,
2013-01-08 03:37:00,26.0,25.0,30.18,North,360,0.0,0.0,94,0.00,,,0.00,weatherlink.com 1.10,2013-01-08 09:37:00,
2013-01-08 03:52:00,26.3,25.0,30.18,North,360,0.0,0.0,94,0.00,,,0.00,weatherlink.com 1.10,2013-01-08 09:52:00,
2013-01-08 04:07:00,26.6,25.0,30.18,North,360,0.0,0.0,94,0.00,,,0.00,weatherlink.com 1.10,2013-01-08 10:07:00,
2013-01-08 04:22:00,25.8,24.0,30.18,North,360,0.0,0.0,93,0.00,,,0.00,weatherlink.com 1.10,2013-01-08 10:22:00,
2013-01-08 04:37:00,25.8,24.0,30.19,North,360,0.0,0.0,94,0.00,,,0.00,weatherlink.com 1.10,2013-01-08 10:37:00,
2013-01-08 04:52:00,25.6,24.0,30.20,North,360,0.0,2.0,94,0.00,,,0.00,weatherlink.com 1.10,2013-01-08 10:52:00,
2013-01-08 05:07:00,25.7,24.0,30.19,North,360,0.0,0.0,94,0.00,,,0.00,weatherlink.com 1.10,2013-01-08 11:07:00,
2013-01-08 05:22:00,25.7,24.0,30.20,North,360,0.0,1.0,94,0.00,,,0.00,weatherlink.com 1.10,2013-01-08 11:22:00,
2013-01-08 05:37:00,24.9,24.0,30.21,North,360,0.0,0.0,94,0.00,,,0.00,weatherlink.com 1.10,2013-01-08 11:37:00,
2013-01-08 05:53:00,25.0,24.0,30.21,North,360,0.0,0.0,94,0.00,,,0.00,weatherlink.com 1.10,2013-01-08 11:53:00,
2013-01-08 06:08:00,25.1,24.0,30.22,North,360,0.0,0.0,94,0.00,,,0.00,weatherlink.com 1.10,2013-01-08 12:08:00,
2013-01-08 06:23:00,24.8,23.0,30.22,North,360,0.0,0.0,94,0.00,,,0.00,weatherlink.com 1.10,2013-01-08 12:23:00,
2013-01-08 06:38:00,24.2,23.0,30.23,North,360,0.0,0.0,93,0.00,,,0.00,weatherlink.com 1.10,2013-01-08 12:38:00,
2013-01-08 06:53:00,25.0,24.0,30.23,North,360,0.0,0.0,95,0.00,,,0.00,weatherlink.com 1.10,2013-01-08 12:53:00,
2013-01-08 07:08:00,24.8,23.0,30.23,North,360,0.0,0.0,94,0.00,,,0.00,weatherlink.com 1.10,2013-01-08 13:08:00,
2013-01-08 07:23:00,24.7,24.0,30.23,North,360,0.0,0.0,95,0.00,,,0.00,weatherlink.com 1.10,2013-01-08 13:23:00,
2013-01-08 07:38:00,25.9,25.0,30.24,North,360,0.0,0.0,95,0.00,,,0.00,weatherlink.com 1.10,2013-01-08 13:38:00,
2013-01-08 07:53:00,27.6,26.0,30.23,North,360,0.0,0.0,95,0.00,,,0.00,weatherlink.com 1.10,2013-01-08 13:53:00,
2013-01-08 08:08:00,29.7,29.0,30.25,North,360,0.0,0.0,95,0.00,,,0.00,weatherlink.com 1.10,2013-01-08 14:08:00,
2013-01-08 08:23:00,30.6,29.0,30.26,North,360,0.0,0.0,94,0.00,,,0.00,weatherlink.com 1.10,2013-01-08 14:23:00,
2013-01-08 08:38:00,32.2,31.0,30.26,North,360,0.0,0.0,94,0.00,,,0.00,weatherlink.com 1.10,2013-01-08 14:38:00,
2013-01-08 08:53:00,33.0,31.0,30.26,North,360,0.0,0.0,93,0.00,,,0.00,weatherlink.com 1.10,2013-01-08 14:53:00,
2013-01-08 09:08:00,35.6,34.0,30.27,North,360,0.0,1.0,92,0.00,,,0.00,weatherlink.com 1.10,2013-01-08 15:08:00,
2013-01-08 09:23:00,39.4,35.0,30.26,East,80,3.0,3.0,84,0.00,,,0.00,weatherlink.com 1.10,2013-01-08 15:23:00,
2013-01-08 09:38:00,41.4,36.0,30.26,SSE,153,0.0,4.0,80,0.00,,,0.00,weatherlink.com 1.10,2013-01-08 15:38:00,
2013-01-08 09:53:00,44.0,37.0,30.26,SW,225,1.0,5.0,76,0.00,,,0.00,weatherlink.com 1.10,2013-01-08 15:53:00,
2013-01-08 10:08:00,45.6,37.0,30.25,South,173,2.0,8.0,72,0.00,,,0.00,weatherlink.com 1.10,2013-01-08 16:08:00,
2013-01-08 10:23:00,46.8,37.0,30.25,SSE,153,1.0,9.0,70,0.00,,,0.00,weatherlink.com 1.10,2013-01-08 16:23:00,
2013-01-08 10:38:00,48.3,38.0,30.24,SE,135,5.0,7.0,68,0.00,,,0.00,weatherlink.com 1.10,2013-01-08 16:38:00,
2013-01-08 10:54:00,48.6,38.0,30.24,SSW,202,6.0,9.0,66,0.00,,,0.00,weatherlink.com 1.10,2013-01-08 16:54:00,
2013-01-08 11:09:00,49.7,38.0,30.23,SE,144,1.0,7.0,64,0.00,,,0.00,weatherlink.com 1.10,2013-01-08 17:09:00,
2013-01-08 11:24:00,51.7,38.0,30.23,South,191,5.0,8.0,61,0.00,,,0.00,weatherlink.com 1.10,2013-01-08 17:24:00,
2013-01-08 11:39:00,51.8,38.0,30.22,SW,236,3.0,9.0,59,0.00,,,0.00,weatherlink.com 1.10,2013-01-08 17:39:00,
2013-01-08 11:54:00,52.4,38.0,30.21,SSW,204,5.0,9.0,58,0.00,,,0.00,weatherlink.com 1.10,2013-01-08 17:54:00,
2013-01-08 12:09:00,52.4,39.0,30.19,South,190,3.0,7.0,61,0.00,,,0.00,weatherlink.com 1.10,2013-01-08 18:09:00,
2013-01-08 12:24:00,53.4,39.0,30.19,SE,128,3.0,6.0,58,0.00,,,0.00,weatherlink.com 1.10,2013-01-08 18:24:00,
2013-01-08 12:39:00,53.5,39.0,30.20,SSW,194,1.0,10.0,59,0.00,,,0.00,weatherlink.com 1.10,2013-01-08 18:39:00,
2013-01-08 12:54:00,54.8,38.0,30.18,SW,220,4.0,6.0,54,0.00,,,0.00,weatherlink.com 1.10,2013-01-08 18:54:00,
2013-01-08 13:09:00,54.8,39.0,30.17,South,184,3.0,6.0,56,0.00,,,0.00,weatherlink.com 1.10,2013-01-08 19:09:00,
2013-01-08 13:24:00,55.4,38.0,30.17,SSE,157,4.0,7.0,53,0.00,,,0.00,weatherlink.com 1.10,2013-01-08 19:24:00,
2013-01-08 13:39:00,56.0,39.0,30.17,South,171,4.0,6.0,54,0.00,,,0.00,weatherlink.com 1.10,2013-01-08 19:39:00,
2013-01-08 13:54:00,56.0,38.0,30.17,SSE,161,1.0,6.0,52,0.00,,,0.00,weatherlink.com 1.10,2013-01-08 19:54:00,
2013-01-08 14:09:00,56.2,37.0,30.17,SW,225,4.0,9.0,49,0.00,,,0.00,weatherlink.com 1.10,2013-01-08 20:09:00,
2013-01-08 14:24:00,56.1,37.0,30.17,SSW,202,4.0,7.0,50,0.00,,,0.00,weatherlink.com 1.10,2013-01-08 20:24:00,
2013-01-08 14:39:00,56.2,39.0,30.17,SSE,150,3.0,5.0,52,0.00,,,0.00,weatherlink.com 1.10,2013-01-08 20:39:00,
2013-01-08 14:54:00,55.8,37.0,30.17,SSW,209,5.0,6.0,50,0.00,,,0.00,weatherlink.com 1.10,2013-01-08 20:54:00,
2013-01-08 15:09:00,55.3,38.0,30.17,SSW,205,1.0,4.0,53,0.00,,,0.00,weatherlink.com 1.10,2013-01-08 21:09:00,
2013-01-08 15:24:00,54.9,38.0,30.17,ESE,118,0.0,2.0,53,0.00,,,0.00,weatherlink.com 1.10,2013-01-08 21:24:00,
2013-01-08 15:39:00,55.2,37.0,30.16,SSW,197,4.0,5.0,51,0.00,,,0.00,weatherlink.com 1.10,2013-01-08 21:39:00,
2013-01-08 15:54:00,53.7,38.0,30.16,SE,130,0.0,3.0,55,0.00,,,0.00,weatherlink.com 1.10,2013-01-08 21:54:00,
2013-01-08 16:09:00,52.9,37.0,30.16,SE,130,0.0,1.0,56,0.00,,,0.00,weatherlink.com 1.10,2013-01-08 22:09:00,
2013-01-08 16:24:00,50.9,37.0,30.16,SE,130,0.0,1.0,60,0.00,,,0.00,weatherlink.com 1.10,2013-01-08 22:24:00,
2013-01-08 16:39:00,50.9,37.0,30.16,SSE,152,0.0,3.0,59,0.00,,,0.00,weatherlink.com 1.10,2013-01-08 22:39:00,
2013-01-08 16:54:00,50.5,36.0,30.16,SSE,152,0.0,0.0,59,0.00,,,0.00,weatherlink.com 1.10,2013-01-08 22:54:00,
2013-01-08 17:09:00,48.7,36.0,30.17,SSE,152,0.0,0.0,62,0.00,,,0.00,weatherlink.com 1.10,2013-01-08 23:09:00,
2013-01-08 17:24:00,46.8,36.0,30.18,SSE,152,0.0,0.0,66,0.00,,,0.00,weatherlink.com 1.10,2013-01-08 23:24:00,
2013-01-08 17:39:00,46.3,36.0,30.18,SSE,152,0.0,0.0,67,0.00,,,0.00,weatherlink.com 1.10,2013-01-08 23:39:00,
2013-01-08 17:54:00,44.0,36.0,30.18,SSE,152,0.0,0.0,73,0.00,,,0.00,weatherlink.com 1.10,2013-01-08 23:54:00,
2013-01-08 18:09:00,43.4,36.0,30.17,SSE,152,0.0,0.0,75,0.00,,,0.00,weatherlink.com 1.10,2013-01-09 00:09:00,
2013-01-08 18:24:00,43.3,35.0,30.17,SSE,152,0.0,0.0,73,0.00,,,0.00,weatherlink.com 1.10,2013-01-09 00:24:00,
2013-01-08 18:39:00,41.4,35.0,30.17,SSE,152,0.0,0.0,78,0.00,,,0.00,weatherlink.com 1.10,2013-01-09 00:39:00,
2013-01-08 18:54:00,40.8,35.0,30.16,SSE,152,0.0,0.0,79,0.00,,,0.00,weatherlink.com 1.10,2013-01-09 00:54:00,
2013-01-08 19:09:00,41.3,35.0,30.16,SSE,152,0.0,0.0,78,0.00,,,0.00,weatherlink.com 1.10,2013-01-09 01:09:00,
2013-01-08 19:24:00,40.2,34.0,30.16,SSE,151,1.0,1.0,79,0.00,,,0.00,weatherlink.com 1.10,2013-01-09 01:24:00,
2013-01-08 19:39:00,39.8,34.0,30.16,SSE,152,0.0,1.0,81,0.00,,,0.00,weatherlink.com 1.10,2013-01-09 01:39:00,
2013-01-08 19:54:00,40.3,35.0,30.16,SSE,152,0.0,0.0,81,0.00,,,0.00,weatherlink.com 1.10,2013-01-09 01:54:00,
2013-01-08 20:09:00,40.0,35.0,30.16,SSE,152,0.0,0.0,82,0.00,,,0.00,weatherlink.com 1.10,2013-01-09 02:09:00,
2013-01-08 20:24:00,39.9,35.0,30.16,SSE,152,0.0,1.0,82,0.00,,,0.00,weatherlink.com 1.10,2013-01-09 02:24:00,
2013-01-08 20:39:00,39.9,36.0,30.16,SSE,152,0.0,0.0,84,0.00,,,0.00,weatherlink.com 1.10,2013-01-09 02:39:00,
2013-01-08 20:54:00,40.6,36.0,30.17,SSE,152,0.0,0.0,83,0.00,,,0.00,weatherlink.com 1.10,2013-01-09 02:54:00,
2013-01-08 21:10:00,41.0,36.0,30.17,SSE,152,0.0,0.0,81,0.00,,,0.00,weatherlink.com 1.10,2013-01-09 03:10:00,
2013-01-08 21:24:00,40.9,36.0,30.17,SSE,152,0.0,0.0,81,0.00,,,0.00,weatherlink.com 1.10,2013-01-09 03:24:00,
2013-01-08 21:39:00,40.6,36.0,30.17,SSE,152,0.0,0.0,82,0.00,,,0.00,weatherlink.com 1.10,2013-01-09 03:39:00,
2013-01-08 21:54:00,40.5,35.0,30.17,SSE,152,0.0,0.0,82,0.00,,,0.00,weatherlink.com 1.10,2013-01-09 03:54:00,
2013-01-08 22:09:00,39.7,35.0,30.17,SSE,152,0.0,0.0,84,0.00,,,0.00,weatherlink.com 1.10,2013-01-09 04:09:00,
2013-01-08 22:24:00,40.1,36.0,30.17,SSE,152,0.0,0.0,85,0.00,,,0.00,weatherlink.com 1.10,2013-01-09 04:24:00,
2013-01-08 22:39:00,40.0,36.0,30.17,SSE,152,0.0,0.0,84,0.00,,,0.00,weatherlink.com 1.10,2013-01-09 04:39:00,
2013-01-08 22:54:00,38.9,35.0,30.18,SSE,152,0.0,0.0,85,0.00,,,0.00,weatherlink.com 1.10,2013-01-09 04:54:00,
2013-01-08 23:09:00,39.3,35.0,30.18,SSE,152,0.0,0.0,85,0.00,,,0.00,weatherlink.com 1.10,2013-01-09 05:09:00,
2013-01-08 23:24:00,39.9,36.0,30.19,SSE,152,0.0,0.0,86,0.00,,,0.00,weatherlink.com 1.10,2013-01-09 05:24:00,
2013-01-08 23:39:00,40.6,37.0,30.19,SSE,152,0.0,0.0,86,0.00,,,0.00,weatherlink.com 1.10,2013-01-09 05:39:00,
2013-01-08 23:54:00,42.0,37.0,30.20,SSE,152,0.0,0.0,82,0.00,,,0.00,weatherlink.com 1.10,2013-01-09 05:54:00,